Time;durP1;ratioP1;P1;durP2;ratioP2;P2;SDS_P1;SDS_P2;PMS_P1;PMS_P2;Temp;Humidity;BMP_temperature;BMP_pressure;BME280_temperature;BME280_humidity;BME280_pressure;Samples;Min_cycle;Max_cycle;Signal;HPM_P1;HPM_P2
2022/08/14 00:00:44;;;;;;;51.80;34.50;;;16.50;99.90;;;;;;5034514;28;20041;-75
2022/08/14 00:03:20;;;;;;;48.13;32.63;;;16.50;99.90;;;;;;5033671;28;20057;-73
2022/08/14 00:05:47;;;;;;;50.63;33.03;;;16.50;99.90;;;;;;5034270;28;20096;-76
2022/08/14 00:08:15;;;;;;;47.92;32.72;;;16.50;99.90;;;;;;5034391;28;20041;-75
2022/08/14 00:10:42;;;;;;;43.33;31.33;;;16.50;99.90;;;;;;5033829;28;20129;-76
2022/08/14 00:13:10;;;;;;;49.17;32.47;;;16.60;99.90;;;;;;5034138;28;20461;-75
2022/08/14 00:15:42;;;;;;;44.03;31.38;;;16.60;99.90;;;;;;5016495;28;20080;-75
2022/08/14 00:18:10;;;;;;;44.50;31.45;;;16.60;99.90;;;;;;5016179;28;20046;-76
2022/08/14 00:20:41;;;;;;;45.47;31.92;;;16.60;99.90;;;;;;5016244;28;20115;-75
2022/08/14 00:23:11;;;;;;;38.17;24.48;;;16.60;99.90;;;;;;5016363;28;20435;-76
2022/08/14 00:25:39;;;;;;;31.63;21.15;;;16.50;99.90;;;;;;5016676;28;20045;-75
2022/08/14 00:28:09;;;;;;;32.38;22.00;;;16.50;99.90;;;;;;5034089;28;20305;-75
2022/08/14 00:30:37;;;;;;;37.90;23.13;;;16.50;99.90;;;;;;5052123;28;20052;-76
2022/08/14 00:33:04;;;;;;;32.45;23.05;;;16.50;99.90;;;;;;5053570;28;20041;-75
2022/08/14 00:35:32;;;;;;;30.85;20.77;;;16.50;99.90;;;;;;5053726;28;20083;-75
2022/08/14 00:38:01;;;;;;;35.03;23.55;;;16.50;99.90;;;;;;5053725;28;20553;-75
2022/08/14 00:40:28;;;;;;;35.53;22.70;;;16.50;99.90;;;;;;5043954;28;20080;-75
2022/08/14 00:42:56;;;;;;;37.33;24.27;;;16.40;99.90;;;;;;5035923;28;20068;-76
2022/08/14 00:45:23;;;;;;;34.78;22.05;;;16.40;99.90;;;;;;5022680;28;20049;-75
2022/08/14 00:47:51;;;;;;;33.90;22.65;;;16.40;99.90;;;;;;5023039;28;20045;-76
2022/08/14 00:50:20;;;;;;;35.67;22.33;;;16.30;99.90;;;;;;5040619;28;20452;-76
2022/08/14 00:52:51;;;;;;;43.58;27.27;;;16.30;99.90;;;;;;5039757;28;20049;-74
2022/08/14 00:55:20;;;;;;;39.67;26.67;;;16.30;99.90;;;;;;5021944;28;20057;-75
2022/08/14 00:58:29;;;;;;;35.65;23.00;;;16.30;99.90;;;;;;5023872;28;20041;-75
2022/08/14 01:00:38;;;;;;;36.50;22.05;;;16.30;99.90;;;;;;5058076;28;20033;-75
2022/08/14 01:03:06;;;;;;;36.17;22.52;;;16.20;99.90;;;;;;5061058;28;20037;-75
2022/08/14 01:05:34;;;;;;;36.92;22.77;;;16.10;99.90;;;;;;5040342;28;20047;-75
2022/08/14 01:08:02;;;;;;;30.63;21.42;;;16.10;99.90;;;;;;5023975;28;20053;-76
2022/08/14 01:13:15;;;;;;;31.42;21.30;;;16.10;99.90;;;;;;5037922;28;20053;-75
2022/08/14 01:15:43;;;;;;;33.20;22.30;;;16.10;99.90;;;;;;5039585;28;20050;-75
2022/08/14 01:21:10;;;;;;;35.22;21.23;;;16.20;99.90;;;;;;5059636;28;20068;-75
2022/08/14 01:23:43;;;;;;;34.53;22.13;;;16.30;99.90;;;;;;5059539;28;20045;-75
2022/08/14 01:26:11;;;;;;;38.40;23.55;;;16.20;99.90;;;;;;5062428;28;20048;-75
2022/08/14 01:28:39;;;;;;;43.25;26.58;;;16.20;99.90;;;;;;5064804;28;20086;-74
2022/08/14 01:31:11;;;;;;;45.60;27.67;;;16.20;99.90;;;;;;5068781;28;20425;-74
2022/08/14 01:33:43;;;;;;;46.53;29.23;;;16.20;99.90;;;;;;5080941;28;20067;-75
2022/08/14 01:36:11;;;;;;;52.88;32.50;;;16.20;99.90;;;;;;5070942;28;20087;-74
2022/08/14 01:38:44;;;;;;;45.05;29.73;;;16.20;99.90;;;;;;5052570;28;20072;-75
2022/08/14 01:41:14;;;;;;;52.20;30.83;;;16.30;99.90;;;;;;5054870;28;20064;-75
2022/08/14 01:43:48;;;;;;;47.20;30.55;;;16.30;99.90;;;;;;5024004;28;20097;-74
2022/08/14 01:46:17;;;;;;;57.95;35.72;;;16.30;99.90;;;;;;5021872;28;20045;-74
2022/08/14 01:48:45;;;;;;;50.30;33.03;;;16.30;99.90;;;;;;5039527;28;20045;-75
2022/08/14 01:51:14;;;;;;;51.50;33.00;;;16.30;99.90;;;;;;5020767;28;20393;-75
2022/08/14 01:53:46;;;;;;;57.67;33.90;;;16.30;99.90;;;;;;5039462;28;20045;-74
2022/08/14 01:56:17;;;;;;;64.28;37.55;;;16.30;99.90;;;;;;5017243;28;20165;-75
2022/08/14 01:58:47;;;;;;;59.35;36.50;;;16.30;99.90;;;;;;5036677;28;20099;-75
2022/08/14 02:01:15;;;;;;;55.67;35.50;;;16.30;99.90;;;;;;5036261;28;20063;-75
2022/08/14 02:03:43;;;;;;;58.17;35.75;;;16.20;99.90;;;;;;5035700;28;20041;-75
2022/08/14 02:06:11;;;;;;;59.15;35.03;;;16.20;99.90;;;;;;5043147;28;20045;-74
2022/08/14 02:08:39;;;;;;;61.30;37.75;;;16.20;99.90;;;;;;5059357;28;20060;-75
2022/08/14 02:11:22;;;;;;;61.47;37.25;;;16.20;99.90;;;;;;5043699;28;20053;-74
2022/08/14 02:13:55;;;;;;;60.58;36.78;;;16.20;99.90;;;;;;5018355;28;20045;-74
2022/08/14 02:16:26;;;;;;;68.97;40.22;;;16.20;99.90;;;;;;5035143;28;20068;-74
2022/08/14 02:18:54;;;;;;;75.78;44.65;;;16.30;99.90;;;;;;5035812;28;20069;-74
2022/08/14 02:21:22;;;;;;;84.53;43.70;;;16.30;99.90;;;;;;5037235;28;20042;-75
2022/08/14 02:23:51;;;;;;;83.25;43.63;;;16.40;99.90;;;;;;5036432;28;20045;-75
2022/08/14 02:26:23;;;;;;;56.97;31.70;;;16.40;99.90;;;;;;5035758;28;20402;-76
2022/08/14 02:28:53;;;;;;;52.67;30.33;;;16.40;99.90;;;;;;5021371;28;20045;-75
2022/08/14 02:31:20;;;;;;;51.45;29.98;;;16.50;99.90;;;;;;5055337;28;20087;-74
2022/08/14 02:33:48;;;;;;;54.60;32.03;;;16.50;99.90;;;;;;5055575;28;20098;-75
2022/08/14 02:36:15;;;;;;;58.35;34.65;;;16.40;99.90;;;;;;5037761;28;20049;-75
2022/08/14 02:38:43;;;;;;;63.85;39.13;;;16.40;99.90;;;;;;5037255;28;20041;-75
2022/08/14 02:41:13;;;;;;;63.55;36.72;;;16.50;99.90;;;;;;5018303;28;20080;-75
2022/08/14 02:43:42;;;;;;;60.75;36.55;;;16.50;99.90;;;;;;5035178;28;20041;-75
2022/08/14 02:46:11;;;;;;;60.63;35.78;;;16.50;99.90;;;;;;5035462;28;20118;-75
2022/08/14 02:48:41;;;;;;;64.43;37.35;;;16.50;99.90;;;;;;5035873;28;20092;-75
2022/08/14 02:51:11;;;;;;;70.75;40.78;;;16.50;99.90;;;;;;5017069;28;20115;-75
2022/08/14 02:53:40;;;;;;;55.90;33.35;;;16.50;99.90;;;;;;5017202;28;20049;-74
2022/08/14 02:56:09;;;;;;;56.75;31.27;;;16.50;99.90;;;;;;5035256;28;20052;-75
2022/08/14 02:58:38;;;;;;;58.70;33.13;;;16.50;99.90;;;;;;5035255;28;20041;-75
2022/08/14 03:01:08;;;;;;;62.17;35.70;;;16.50;99.90;;;;;;5017671;28;20068;-75
2022/08/14 03:03:36;;;;;;;96.88;46.88;;;16.50;99.90;;;;;;5034962;28;20419;-74
2022/08/14 03:06:04;;;;;;;116.18;55.22;;;16.50;99.90;;;;;;5035143;28;20096;-75
2022/08/14 03:08:32;;;;;;;126.93;55.63;;;16.50;99.90;;;;;;5034854;28;20041;-75
2022/08/14 03:11:05;;;;;;;130.10;60.10;;;16.50;99.90;;;;;;5018192;28;20053;-75
2022/08/14 03:13:33;;;;;;;145.45;63.28;;;16.50;99.90;;;;;;5035526;28;20065;-75
2022/08/14 03:16:00;;;;;;;145.63;62.25;;;16.50;99.90;;;;;;5034796;28;20065;-75
2022/08/14 03:18:30;;;;;;;142.82;62.15;;;16.40;99.90;;;;;;5034838;28;20496;-76
2022/08/14 03:20:58;;;;;;;135.05;62.55;;;16.40;99.90;;;;;;5017295;28;20761;-75
2022/08/14 03:23:26;;;;;;;135.40;61.92;;;16.40;99.90;;;;;;5034431;28;20164;-76
2022/08/14 03:25:54;;;;;;;135.10;61.42;;;16.40;99.90;;;;;;5034846;28;20456;-75
2022/08/14 03:28:22;;;;;;;124.80;55.50;;;16.30;99.90;;;;;;5034622;28;20111;-75
2022/08/14 03:30:50;;;;;;;132.80;59.17;;;16.40;99.90;;;;;;5015369;28;20493;-75
2022/08/14 03:33:19;;;;;;;131.30;59.97;;;16.30;99.90;;;;;;5017743;28;20049;-75
2022/08/14 03:35:48;;;;;;;134.70;62.28;;;16.20;99.90;;;;;;5034987;28;20071;-75
2022/08/14 03:38:16;;;;;;;132.18;62.55;;;16.20;99.90;;;;;;5034585;28;20477;-76
2022/08/14 03:40:43;;;;;;;135.80;62.47;;;16.10;99.90;;;;;;5016720;28;20112;-75
2022/08/14 03:43:11;;;;;;;138.55;62.25;;;16.10;99.90;;;;;;5016657;28;20095;-76
2022/08/14 03:45:40;;;;;;;151.52;64.60;;;16.00;99.90;;;;;;5034419;28;20079;-76
2022/08/14 03:48:13;;;;;;;164.52;69.03;;;16.00;99.90;;;;;;5034924;28;20037;-75
2022/08/14 03:50:41;;;;;;;167.50;66.70;;;16.00;99.90;;;;;;5034001;28;20506;-75
2022/08/14 03:53:12;;;;;;;172.27;67.68;;;16.10;99.90;;;;;;5049161;23;20416;-77
2022/08/14 03:55:40;;;;;;;167.50;65.22;;;16.10;99.90;;;;;;5034047;28;20053;-77
2022/08/14 03:58:08;;;;;;;169.80;66.78;;;16.10;99.90;;;;;;5016267;28;20488;-77
2022/08/14 04:00:37;;;;;;;159.95;64.53;;;16.10;99.90;;;;;;5033717;28;20049;-77
2022/08/14 04:03:07;;;;;;;166.48;64.38;;;16.20;99.90;;;;;;5033646;28;20092;-78
2022/08/14 04:05:37;;;;;;;168.43;65.03;;;16.10;99.90;;;;;;5034778;28;20037;-78
2022/08/14 04:08:04;;;;;;;178.30;66.82;;;16.10;99.90;;;;;;5035573;28;20037;-78
2022/08/14 04:10:33;;;;;;;181.02;66.47;;;16.10;99.90;;;;;;5018169;28;20552;-78
2022/08/14 04:13:00;;;;;;;186.52;68.90;;;16.10;99.90;;;;;;5035116;28;20080;-78
2022/08/14 04:15:28;;;;;;;181.18;65.40;;;16.10;99.90;;;;;;5034707;28;20037;-78
2022/08/14 04:17:55;;;;;;;173.02;63.03;;;16.10;99.90;;;;;;5008075;28;20111;-78
2022/08/14 04:20:23;;;;;;;180.35;64.22;;;16.10;99.90;;;;;;5035697;28;20049;-78
2022/08/14 04:22:51;;;;;;;173.73;62.42;;;16.10;99.90;;;;;;5018492;28;20103;-78
2022/08/14 04:25:18;;;;;;;182.30;66.65;;;16.20;99.90;;;;;;5034716;28;20044;-78
2022/08/14 04:27:47;;;;;;;173.45;64.28;;;16.20;99.90;;;;;;5020653;28;20049;-78
2022/08/14 04:30:15;;;;;;;177.82;66.05;;;16.20;99.90;;;;;;5055160;28;20049;-78
2022/08/14 04:32:43;;;;;;;194.27;67.13;;;16.20;99.90;;;;;;5041305;28;20080;-77
2022/08/14 04:35:11;;;;;;;177.40;69.22;;;16.20;99.90;;;;;;5059249;28;20170;-78
2022/08/14 04:45:54;;;;;;;172.05;65.28;;;16.40;99.90;;;;;;5022695;28;20116;-77
2022/08/14 04:48:21;;;;;;;165.52;62.08;;;16.50;99.90;;;;;;5039575;28;20488;-78
2022/08/14 04:50:50;;;;;;;171.27;66.47;;;16.60;99.90;;;;;;5038917;28;20092;-78
2022/08/14 04:53:22;;;;;;;166.18;65.22;;;16.70;99.90;;;;;;5004508;28;20141;-78
2022/08/14 04:55:50;;;;;;;167.02;64.72;;;16.70;99.90;;;;;;4990019;28;20178;-78
2022/08/14 04:58:21;;;;;;;160.05;62.97;;;16.60;99.90;;;;;;4999721;28;20067;-78
2022/08/14 05:00:50;;;;;;;151.43;60.72;;;16.70;99.90;;;;;;5024043;28;20380;-77
2022/08/14 05:03:19;;;;;;;173.50;61.65;;;16.80;99.90;;;;;;5001079;28;20137;-78
2022/08/14 05:05:47;;;;;;;161.25;61.28;;;16.90;99.90;;;;;;5018680;28;20050;-78
2022/08/14 05:08:15;;;;;;;154.18;60.20;;;16.90;99.90;;;;;;5000763;28;20077;-78
2022/08/14 05:10:44;;;;;;;162.10;63.25;;;17.00;99.90;;;;;;5019314;28;20068;-77
2022/08/14 05:13:12;;;;;;;160.20;60.80;;;16.90;99.90;;;;;;5034228;28;20076;-78
2022/08/14 05:15:43;;;;;;;148.38;59.28;;;17.00;99.90;;;;;;5028197;28;20046;-78
2022/08/14 05:18:14;;;;;;;142.75;59.63;;;17.00;99.90;;;;;;5025669;28;20041;-77
2022/08/14 05:20:44;;;;;;;146.73;58.67;;;17.10;99.90;;;;;;5018697;28;20108;-77
2022/08/14 05:23:13;;;;;;;146.98;60.28;;;17.00;99.90;;;;;;5017857;28;20112;-77
2022/08/14 05:25:40;;;;;;;131.02;56.85;;;17.00;99.90;;;;;;4999449;28;20060;-78
2022/08/14 05:28:12;;;;;;;141.48;59.22;;;16.90;99.90;;;;;;5015490;28;20046;-77
2022/08/14 05:30:42;;;;;;;139.85;59.78;;;17.00;99.90;;;;;;5033385;28;20037;-77
2022/08/14 05:33:11;;;;;;;146.82;59.72;;;16.90;99.90;;;;;;5036744;28;20503;-77
2022/08/14 05:35:39;;;;;;;139.93;57.05;;;17.00;99.90;;;;;;5018746;28;20045;-77
2022/08/14 05:38:08;;;;;;;142.05;58.22;;;17.00;99.90;;;;;;5037690;28;20059;-78
2022/08/14 05:40:36;;;;;;;141.20;59.60;;;17.20;99.90;;;;;;5027821;28;20120;-77
2022/08/14 05:43:03;;;;;;;126.85;57.75;;;17.30;99.90;;;;;;5015684;28;20041;-77
2022/08/14 05:45:31;;;;;;;137.45;60.28;;;17.50;99.90;;;;;;5019498;28;20057;-78
2022/08/14 05:47:59;;;;;;;137.27;55.47;;;17.60;99.90;;;;;;5010072;28;20065;-80
2022/08/14 05:50:27;;;;;;;126.78;56.60;;;17.80;99.90;;;;;;5046452;28;20087;-78
2022/08/14 05:52:54;;;;;;;117.53;54.33;;;17.90;99.90;;;;;;5039363;28;20065;-78
2022/08/14 05:55:22;;;;;;;121.43;56.13;;;18.20;99.90;;;;;;5046609;28;20099;-76
2022/08/14 05:57:52;;;;;;;125.72;55.47;;;18.50;99.90;;;;;;5038673;28;20049;-77
2022/08/14 06:00:22;;;;;;;140.65;57.63;;;18.70;99.90;;;;;;5021757;28;20099;-76
2022/08/14 06:02:49;;;;;;;141.30;57.28;;;18.90;99.90;;;;;;5019677;28;20519;-76
2022/08/14 06:05:18;;;;;;;135.73;56.17;;;18.90;99.90;;;;;;5019632;28;20045;-76
2022/08/14 06:07:45;;;;;;;137.43;58.70;;;18.90;99.90;;;;;;5037412;28;20111;-76
2022/08/14 06:10:13;;;;;;;130.27;56.80;;;18.90;99.90;;;;;;5038313;28;20106;-76
2022/08/14 06:12:40;;;;;;;120.18;53.08;;;18.90;99.90;;;;;;5038011;28;20045;-76
2022/08/14 06:15:09;;;;;;;117.70;52.40;;;18.80;99.90;;;;;;5000742;28;20050;-76
2022/08/14 06:17:46;;;;;;;131.05;54.70;;;18.90;99.90;;;;;;5033318;28;20052;-76
2022/08/14 06:20:15;;;;;;;127.22;52.15;;;18.80;99.90;;;;;;5035492;28;20124;-77
2022/08/14 06:22:45;;;;;;;116.85;52.67;;;18.80;99.90;;;;;;5016282;28;20096;-76
2022/08/14 06:25:15;;;;;;;124.72;52.72;;;18.70;99.90;;;;;;5016417;28;20042;-77
2022/08/14 06:27:44;;;;;;;123.32;54.13;;;18.60;99.90;;;;;;5016558;28;20037;-77
2022/08/14 06:30:14;;;;;;;115.85;51.95;;;18.50;99.90;;;;;;5016463;28;20100;-77
2022/08/14 06:32:42;;;;;;;117.05;48.50;;;18.50;99.90;;;;;;5015848;28;20042;-77
2022/08/14 06:35:11;;;;;;;113.05;50.03;;;18.50;99.90;;;;;;4999434;28;20104;-77
2022/08/14 06:37:45;;;;;;;121.20;50.70;;;18.40;99.90;;;;;;5016957;28;20041;-77
2022/08/14 06:40:14;;;;;;;117.95;49.22;;;18.40;99.90;;;;;;5016220;28;20045;-73
2022/08/14 06:42:42;;;;;;;116.00;50.28;;;18.40;99.90;;;;;;5001279;28;20505;-80
2022/08/14 06:45:12;;;;;;;112.03;47.88;;;18.50;99.90;;;;;;5005717;28;20052;-80
2022/08/14 06:47:42;;;;;;;109.80;48.42;;;18.50;99.90;;;;;;5022541;28;20041;-78
2022/08/14 06:50:12;;;;;;;117.10;49.40;;;18.50;99.90;;;;;;5022768;28;20053;-79
2022/08/14 06:52:40;;;;;;;110.10;46.28;;;18.40;99.90;;;;;;5004564;28;20068;-79
2022/08/14 06:55:11;;;;;;;108.22;45.08;;;18.40;99.90;;;;;;5027122;28;20394;-79
2022/08/14 06:57:40;;;;;;;113.57;47.08;;;18.30;99.90;;;;;;5021752;28;20049;-78
2022/08/14 07:00:10;;;;;;;100.45;44.30;;;18.40;99.90;;;;;;5023814;28;20144;-80
2022/08/14 07:08:12;;;;;;;104.43;44.65;;;18.80;99.90;;;;;;5042378;28;20033;-80
2022/08/14 07:10:42;;;;;;;98.85;43.22;;;19.00;99.90;;;;;;5042111;28;20116;-80
2022/08/14 07:13:11;;;;;;;96.10;43.65;;;19.40;99.90;;;;;;5041910;28;20390;-82
2022/08/14 07:15:38;;;;;;;93.20;42.35;;;20.10;99.90;;;;;;5042376;28;20049;-80
2022/08/14 07:18:07;;;;;;;92.38;43.22;;;20.50;99.90;;;;;;5041933;28;20092;-79
2022/08/14 07:20:39;;;;;;;88.88;42.95;;;20.80;99.90;;;;;;5023696;28;20045;-79
2022/08/14 07:23:08;;;;;;;77.22;37.63;;;21.10;99.90;;;;;;5023264;28;20049;-80
2022/08/14 07:25:36;;;;;;;78.57;38.83;;;21.30;99.90;;;;;;5041454;28;20084;-80
2022/08/14 07:28:11;;;;;;;79.70;36.72;;;21.20;99.90;;;;;;5041380;28;20042;-80
2022/08/14 07:30:39;;;;;;;74.85;39.85;;;21.70;99.90;;;;;;5060355;28;20101;-80
2022/08/14 07:33:07;;;;;;;77.25;39.60;;;21.90;99.90;;;;;;5060697;28;20044;-79
2022/08/14 07:35:35;;;;;;;76.35;40.97;;;22.30;99.90;;;;;;5065203;28;20068;-82
2022/08/14 07:38:03;;;;;;;64.50;35.05;;;22.40;99.90;;;;;;5067297;28;20098;-79
2022/08/14 07:40:39;;;;;;;64.38;34.25;;;22.40;99.90;;;;;;5061771;28;20068;-79
2022/08/14 07:43:07;;;;;;;69.53;35.97;;;22.40;99.90;;;;;;5062391;28;20380;-79
2022/08/14 07:45:35;;;;;;;62.95;33.47;;;22.50;99.90;;;;;;5043266;28;20107;-79
2022/08/14 07:48:03;;;;;;;54.28;30.30;;;22.80;99.90;;;;;;5041443;28;20049;-77
2022/08/14 07:50:30;;;;;;;63.05;34.35;;;23.20;99.90;;;;;;5054473;28;20091;-77
2022/08/14 07:52:58;;;;;;;62.47;35.20;;;23.00;99.90;;;;;;5053256;28;20057;-77
2022/08/14 07:55:26;;;;;;;69.53;34.40;;;22.60;99.90;;;;;;5045626;28;20087;-77
2022/08/14 07:57:53;;;;;;;60.05;32.75;;;22.80;99.90;;;;;;5034059;28;20064;-77
2022/08/14 08:00:23;;;;;;;57.20;32.55;;;22.80;99.90;;;;;;5034381;28;20045;-78
2022/08/14 08:02:53;;;;;;;56.42;30.17;;;22.70;99.90;;;;;;5016556;28;20114;-78
2022/08/14 08:05:23;;;;;;;58.05;32.17;;;22.60;99.90;;;;;;5017253;28;20137;-78
2022/08/14 08:07:52;;;;;;;55.83;29.48;;;22.60;99.90;;;;;;5034966;28;20042;-78
2022/08/14 08:13:11;;;;;;;46.53;26.40;;;22.80;99.90;;;;;;5032324;28;20128;-78
2022/08/14 08:15:40;;;;;;;50.30;27.35;;;22.80;99.90;;;;;;5033779;28;20037;-77
2022/08/14 08:18:10;;;;;;;42.42;25.05;;;22.90;99.90;;;;;;5033807;28;20046;-77
2022/08/14 08:20:41;;;;;;;39.30;25.20;;;22.90;99.90;;;;;;5034039;28;20048;-77
2022/08/14 08:23:08;;;;;;;44.72;25.25;;;23.00;99.90;;;;;;5033387;28;20095;-77
2022/08/14 08:25:37;;;;;;;41.30;24.42;;;23.20;99.90;;;;;;5017917;28;20046;-77
2022/08/14 08:28:07;;;;;;;37.63;24.17;;;23.40;99.90;;;;;;5034025;28;20037;-78
2022/08/14 08:30:36;;;;;;;443.50;105.97;;;23.80;99.90;;;;;;5051771;28;20048;-78
2022/08/14 08:33:06;;;;;;;34.67;22.23;;;24.10;99.90;;;;;;5053392;28;20504;-77
2022/08/14 08:35:37;;;;;;;35.55;23.15;;;24.30;99.90;;;;;;5035851;28;20049;-79
2022/08/14 08:38:07;;;;;;;44.40;29.90;;;24.40;99.90;;;;;;5055220;28;20490;-79
2022/08/14 08:40:36;;;;;;;49.33;29.67;;;24.20;99.90;;;;;;5054470;28;20069;-77
2022/08/14 08:43:06;;;;;;;46.25;29.65;;;24.20;99.90;;;;;;5035378;28;20080;-77
2022/08/14 08:45:34;;;;;;;57.75;34.15;;;24.40;99.90;;;;;;5053202;28;20119;-77
2022/08/14 08:48:03;;;;;;;55.45;34.53;;;24.40;99.90;;;;;;5053002;28;20412;-77
2022/08/14 08:50:34;;;;;;;60.33;35.00;;;24.60;99.90;;;;;;5035969;28;20131;-77
2022/08/14 08:53:06;;;;;;;48.35;32.00;;;25.10;99.90;;;;;;5052162;28;20511;-77
2022/08/14 08:55:36;;;;;;;44.42;30.90;;;25.60;99.90;;;;;;5022157;28;20053;-77
2022/08/14 08:58:05;;;;;;;44.47;31.27;;;25.40;99.90;;;;;;5012455;28;20481;-77
2022/08/14 09:00:35;;;;;;;54.55;38.15;;;25.50;99.90;;;;;;5012539;28;20054;-77
2022/08/14 09:03:06;;;;;;;62.35;40.92;;;24.90;99.90;;;;;;5012512;28;20060;-77
2022/08/14 09:05:35;;;;;;;60.60;41.05;;;25.10;99.90;;;;;;5016485;28;20096;-78
2022/08/14 09:08:18;;;;;;;51.05;34.88;;;25.10;99.90;;;;;;5016731;28;20037;-76
2022/08/14 09:10:47;;;;;;;53.58;38.00;;;24.90;99.90;;;;;;5016640;28;20042;-77
2022/08/14 09:13:15;;;;;;;57.10;37.65;;;25.10;99.90;;;;;;5015387;28;20497;-77
2022/08/14 09:15:44;;;;;;;62.95;39.30;;;25.40;99.90;;;;;;5015679;28;20390;-77
2022/08/14 09:18:14;;;;;;;61.15;41.70;;;25.30;99.90;;;;;;5016196;28;20045;-77
2022/08/14 09:20:43;;;;;;;64.82;45.10;;;25.20;99.90;;;;;;5035568;28;20117;-77
2022/08/14 09:23:12;;;;;;;61.92;42.53;;;25.10;99.90;;;;;;5035634;28;20100;-77
2022/08/14 09:25:43;;;;;;;61.72;43.15;;;24.70;99.90;;;;;;5035333;28;20038;-77
2022/08/14 09:28:12;;;;;;;60.45;44.13;;;24.50;99.90;;;;;;5036050;28;20065;-77
2022/08/14 09:30:45;;;;;;;56.83;42.22;;;24.50;99.90;;;;;;5036574;28;20083;-77
2022/08/14 09:33:34;;;;;;;63.08;42.58;;;24.40;99.90;;;;;;5055311;28;20491;-77
2022/08/14 09:36:26;;;;;;;54.38;36.55;;;24.60;99.90;;;;;;5055779;28;21015;-77
2022/08/14 09:39:05;;;;;;;50.50;34.92;;;24.50;99.90;;;;;;5061911;28;20040;-79
2022/08/14 09:41:50;;;;;;;42.97;31.02;;;24.50;99.90;;;;;;5067112;28;20044;-79
2022/08/14 09:44:33;;;;;;;37.13;28.27;;;24.60;99.90;;;;;;5066029;28;20052;-79
2022/08/14 09:47:00;;;;;;;35.15;26.98;;;24.70;99.90;;;;;;5067967;28;20120;-79
2022/08/14 09:49:32;;;;;;;40.03;29.95;;;24.60;99.90;;;;;;5049885;28;20037;-80
2022/08/14 09:52:09;;;;;;;42.25;33.13;;;24.80;99.90;;;;;;5000899;28;1755085;-77
2022/08/14 09:54:38;;;;;;;50.10;37.15;;;25.20;99.90;;;;;;5054536;28;20079;-77
2022/08/14 09:57:09;;;;;;;57.70;40.72;;;25.60;99.90;;;;;;5018511;28;20501;-77
2022/08/14 09:59:44;;;;;;;50.72;39.13;;;25.70;99.90;;;;;;5018717;28;20046;-77
2022/08/14 10:02:25;;;;;;;;;;;25.40;99.90;;;;;;5037644;28;20052;-77
2022/08/14 10:05:01;;;;;;;47.83;37.72;;;24.90;99.90;;;;;;5020511;28;19944;-77
2022/08/14 10:07:33;;;;;;;50.85;42.70;;;24.70;99.90;;;;;;5024444;28;20080;-77
2022/08/14 10:10:01;;;;;;;49.90;40.90;;;24.70;99.90;;;;;;5041588;28;20104;-76
2022/08/14 10:12:45;;;;;;;54.10;42.42;;;24.60;99.90;;;;;;5041389;28;20072;-77
2022/08/14 10:15:18;;;;;;;59.40;45.53;;;24.70;99.90;;;;;;5022508;28;20053;-78
2022/08/14 10:17:47;;;;;;;61.90;49.10;;;25.00;99.90;;;;;;5038092;28;20052;-77
2022/08/14 10:20:19;;;;;;;56.63;45.42;;;25.20;99.90;;;;;;5036200;28;20542;-77
2022/08/14 10:22:48;;;;;;;54.83;46.17;;;25.50;99.90;;;;;;5036050;28;20116;-77
2022/08/14 10:25:16;;;;;;;52.50;44.33;;;25.80;99.90;;;;;;5036157;28;20132;-77
2022/08/14 10:27:48;;;;;;;59.90;51.42;;;26.30;99.90;;;;;;5036439;28;20050;-77
2022/08/14 10:30:19;;;;;;;55.35;49.13;;;26.20;99.90;;;;;;5033485;28;20041;-77
2022/08/14 10:32:47;;;;;;;65.70;57.83;;;26.60;99.90;;;;;;5037466;28;20049;-78
2022/08/14 10:35:16;;;;;;;70.20;59.00;;;26.60;99.90;;;;;;5037977;28;20462;-77
2022/08/14 10:37:46;;;;;;;70.63;57.53;;;26.60;99.90;;;;;;5056431;28;20041;-77
2022/08/14 10:40:16;;;;;;;62.65;52.92;;;26.10;99.90;;;;;;5057383;28;20102;-78
2022/08/14 10:42:47;;;;;;;79.50;67.90;;;26.10;99.90;;;;;;5057092;28;20045;-77
2022/08/14 10:45:20;;;;;;;63.42;54.58;;;26.30;99.90;;;;;;5058232;28;20099;-78
2022/08/14 10:47:48;;;;;;;52.90;44.88;;;26.60;99.90;;;;;;5060119;28;20385;-77
2022/08/14 10:50:16;;;;;;;62.20;52.05;;;26.80;99.90;;;;;;5057999;28;20048;-77
2022/08/14 10:52:45;;;;;;;53.63;47.30;;;26.50;99.90;;;;;;5065944;28;20063;-76
2022/08/14 10:55:14;;;;;;;61.33;49.25;;;26.20;99.90;;;;;;5065404;28;20041;-78
2022/08/14 10:57:51;;;;;;;56.88;46.38;;;26.10;99.90;;;;;;5051204;28;20068;-78
2022/08/14 11:00:22;;;;;;;56.25;48.50;;;26.30;99.90;;;;;;5050868;28;20022;-78
2022/08/14 11:02:59;;;;;;;54.05;43.47;;;26.50;99.90;;;;;;5049478;28;20056;-78
2022/08/14 11:05:40;;;;;;;45.75;39.25;;;26.70;99.90;;;;;;5041697;28;20046;-79
2022/08/14 11:08:08;;;;;;;51.85;43.17;;;26.80;99.90;;;;;;5025304;28;20413;-79
2022/08/14 11:10:44;;;;;;;51.80;39.78;;;27.10;99.90;;;;;;5028305;28;20057;-79
2022/08/14 11:13:20;;;;;;;58.17;45.42;;;27.10;99.90;;;;;;5046598;28;20061;-77
2022/08/14 11:15:48;;;;;;;61.42;47.90;;;26.70;99.90;;;;;;5045398;28;20054;-78
2022/08/14 11:18:16;;;;;;;62.00;50.47;;;26.80;99.90;;;;;;5025259;28;20049;-78
2022/08/14 11:20:50;;;;;;;53.03;43.10;;;27.10;99.90;;;;;;5040853;28;20423;-78
2022/08/14 11:23:21;;;;;;;54.78;43.75;;;27.00;99.90;;;;;;5038847;28;20484;-79
2022/08/14 11:25:49;;;;;;;45.65;40.33;;;27.30;99.90;;;;;;5041221;28;20504;-79
2022/08/14 11:28:22;;;;;;;33.10;27.02;;;27.40;99.90;;;;;;5043888;28;20500;-78
2022/08/14 11:30:51;;;;;;;30.73;24.67;;;27.60;99.90;;;;;;5063318;28;20045;-79
2022/08/14 11:33:23;;;;;;;28.42;22.08;;;27.60;99.90;;;;;;5045019;28;20135;-79
2022/08/14 11:35:51;;;;;;;28.63;24.67;;;27.30;99.90;;;;;;5062231;28;20056;-78
2022/08/14 11:38:18;;;;;;;25.75;20.58;;;27.40;99.90;;;;;;5060955;28;20068;-79
2022/08/14 11:40:46;;;;;;;19.95;17.85;;;27.60;99.90;;;;;;5063123;28;20045;-79
2022/08/14 11:43:13;;;;;;;19.65;17.58;;;27.60;99.90;;;;;;5064040;28;20045;-79
2022/08/14 11:45:47;;;;;;;19.25;16.50;;;27.30;99.90;;;;;;5060776;28;20048;-80
2022/08/14 11:48:16;;;;;;;19.65;16.45;;;27.10;99.90;;;;;;5063517;28;20037;-79
2022/08/14 11:50:46;;;;;;;16.40;14.32;;;27.20;99.90;;;;;;5062557;28;20044;-79
2022/08/14 11:53:29;;;;;;;17.00;15.18;;;27.00;99.90;;;;;;5063112;28;20049;-81
2022/08/14 11:56:01;;;;;;;21.42;18.83;;;26.80;99.90;;;;;;5028311;28;20057;-79
2022/08/14 11:58:30;;;;;;;21.77;19.42;;;26.70;99.90;;;;;;5023708;28;20541;-79
2022/08/14 12:01:02;;;;;;;24.15;21.55;;;26.40;99.90;;;;;;5023702;28;20045;-79
2022/08/14 12:03:38;;;;;;;25.15;22.48;;;26.40;99.90;;;;;;5024766;28;20065;-79
2022/08/14 12:06:06;;;;;;;26.80;23.95;;;26.00;99.90;;;;;;5026484;28;20046;-78
2022/08/14 12:08:35;;;;;;;25.83;22.70;;;26.00;99.90;;;;;;5024332;28;20054;-78
2022/08/14 12:11:03;;;;;;;26.85;22.33;;;26.30;99.90;;;;;;5026521;28;20050;-79
2022/08/14 12:13:32;;;;;;;19.58;17.48;;;26.50;99.90;;;;;;5029217;28;20072;-78
2022/08/14 12:16:05;;;;;;;15.70;13.57;;;26.50;99.90;;;;;;5029855;28;20670;-78
2022/08/14 12:18:34;;;;;;;13.40;12.00;;;26.50;99.90;;;;;;5023245;28;20117;-78
2022/08/14 12:21:12;;;;;;;17.10;14.32;;;26.60;99.90;;;;;;5020323;28;20037;-78
2022/08/14 12:23:40;;;;;;;16.75;12.52;;;26.80;99.90;;;;;;5020403;28;20121;-80
2022/08/14 12:26:09;;;;;;;12.32;11.13;;;26.90;99.90;;;;;;5020706;28;20052;-79
2022/08/14 12:28:38;;;;;;;12.00;10.80;;;27.00;99.90;;;;;;5024172;28;20153;-78
2022/08/14 12:31:15;;;;;;;12.70;11.35;;;26.30;99.90;;;;;;5058583;28;20037;-79
2022/08/14 12:33:43;;;;;;;13.40;10.75;;;26.30;99.90;;;;;;5059194;28;20044;-79
2022/08/14 12:36:20;;;;;;;15.15;11.50;;;26.20;99.90;;;;;;5058582;28;20127;-80
2022/08/14 12:38:49;;;;;;;12.95;11.57;;;26.00;99.90;;;;;;5058675;28;20050;-79
2022/08/14 12:41:23;;;;;;;14.95;13.35;;;26.10;99.90;;;;;;5060279;28;20135;-79
2022/08/14 12:43:53;;;;;;;12.65;11.20;;;26.00;99.90;;;;;;5041981;28;20068;-79
2022/08/14 12:46:29;;;;;;;12.38;11.07;;;25.90;99.90;;;;;;5045360;28;20048;-79
2022/08/14 12:48:59;;;;;;;13.07;10.00;;;25.80;99.90;;;;;;5061959;28;20057;-79
2022/08/14 12:51:28;;;;;;;12.25;10.05;;;25.60;99.90;;;;;;5061292;28;20120;-79
2022/08/14 12:53:57;;;;;;;11.45;10.25;;;25.60;99.90;;;;;;5059477;28;20055;-79
2022/08/14 12:56:25;;;;;;;11.50;9.85;;;25.40;99.90;;;;;;5046040;28;20061;-79
2022/08/14 12:58:54;;;;;;;12.57;10.57;;;25.50;99.90;;;;;;5044373;28;20048;-80